Time,TemperatureF,DewpointF,PressureIn,WindDirection,WindDirectionDegrees,WindSpeedMPH,WindSpeedGustMPH,Humidity,HourlyPrecipIn,Conditions,Clouds,dailyrainin,SolarRadiationWatts/m^2,SoftwareType,DateUTC
2013-07-05 00:00:00,78.0,71.7,30.15,SSE,162,0.0,0.0,81,0.00,,,0.00,0,Wunderground v.1.15,2013-07-05 04:00:00,
2013-07-05 00:10:00,77.1,71.5,30.15,SSE,162,0.0,0.0,83,0.00,,,0.00,0,Wunderground v.1.15,2013-07-05 04:10:00,
2013-07-05 00:20:00,76.6,71.4,30.15,SSE,162,0.0,0.0,84,0.00,,,0.00,0,Wunderground v.1.15,2013-07-05 04:20:00,
2013-07-05 00:30:00,76.3,71.5,30.15,SSE,162,0.0,0.0,85,0.00,,,0.00,0,Wunderground v.1.15,2013-07-05 04:30:00,
2013-07-05 00:40:00,76.2,71.7,30.15,SSE,162,0.0,0.0,86,0.00,,,0.00,0,Wunderground v.1.15,2013-07-05 04:40:00,
2013-07-05 00:50:00,76.9,72.0,30.15,SSE,162,0.0,0.0,85,0.00,,,0.00,0,Wunderground v.1.15,2013-07-05 04:50:00,
2013-07-05 01:00:00,77.2,72.0,30.15,SSE,162,0.0,0.0,84,0.00,,,0.00,0,Wunderground v.1.15,2013-07-05 05:00:00,
2013-07-05 01:10:00,77.2,72.0,30.16,SSE,162,0.0,0.0,84,0.00,,,0.00,0,Wunderground v.1.15,2013-07-05 05:10:00,
2013-07-05 01:20:00,76.8,71.6,30.16,SSE,162,0.0,0.0,84,0.00,,,0.00,0,Wunderground v.1.15,2013-07-05 05:20:00,
2013-07-05 01:30:00,76.2,71.7,30.15,SSE,162,0.0,0.0,86,0.00,,,0.00,0,Wunderground v.1.15,2013-07-05 05:30:00,
2013-07-05 01:40:00,75.7,71.2,30.16,SSE,162,0.0,0.0,86,0.00,,,0.00,0,Wunderground v.1.15,2013-07-05 05:40:00,
2013-07-05 01:50:00,74.1,70.3,30.15,SSE,162,0.0,0.0,88,0.00,,,0.00,0,Wunderground v.1.15,2013-07-05 05:50:00,
2013-07-05 02:00:00,73.2,70.1,30.16,SSE,162,0.0,0.0,90,0.00,,,0.00,0,Wunderground v.1.15,2013-07-05 06:00:00,
2013-07-05 02:10:00,72.4,69.6,30.15,SSE,162,0.0,0.0,91,0.00,,,0.00,0,Wunderground v.1.15,2013-07-05 06:10:00,
2013-07-05 02:20:00,71.9,69.4,30.15,SSE,162,0.0,0.0,92,0.00,,,0.00,0,Wunderground v.1.15,2013-07-05 06:20:00,
2013-07-05 02:30:00,71.6,69.5,30.15,SSE,162,0.0,0.0,93,0.00,,,0.00,0,Wunderground v.1.15,2013-07-05 06:30:00,
2013-07-05 02:40:00,71.5,69.7,30.15,SSE,162,0.0,0.0,94,0.00,,,0.00,0,Wunderground v.1.15,2013-07-05 06:40:00,
2013-07-05 02:50:00,71.5,69.7,30.15,SSE,162,0.0,0.0,94,0.00,,,0.00,0,Wunderground v.1.15,2013-07-05 06:50:00,
2013-07-05 03:00:00,71.1,69.3,30.15,SSE,162,0.0,0.0,94,0.00,,,0.00,0,Wunderground v.1.15,2013-07-05 07:00:00,
2013-07-05 03:10:00,71.2,69.7,30.15,SSE,162,0.0,0.0,95,0.00,,,0.00,0,Wunderground v.1.15,2013-07-05 07:10:00,
2013-07-05 03:20:00,71.1,69.6,30.15,SSE,162,0.0,0.0,95,0.00,,,0.00,0,Wunderground v.1.15,2013-07-05 07:20:00,
2013-07-05 03:30:00,71.1,69.6,30.15,SSE,162,0.0,0.0,95,0.00,,,0.00,0,Wunderground v.1.15,2013-07-05 07:30:00,
2013-07-05 03:40:00,71.2,69.7,30.15,SSE,162,0.0,0.0,95,0.00,,,0.00,0,Wunderground v.1.15,2013-07-05 07:40:00,
2013-07-05 03:50:00,71.6,70.1,30.14,SSE,162,0.0,0.0,95,0.00,,,0.00,0,Wunderground v.1.15,2013-07-05 07:50:00,
2013-07-05 04:00:00,72.0,70.5,30.15,SSE,162,0.0,0.0,95,0.00,,,0.00,0,Wunderground v.1.15,2013-07-05 08:00:00,
2013-07-05 04:10:00,71.9,70.1,30.15,SSE,162,0.0,0.0,94,0.00,,,0.00,0,Wunderground v.1.15,2013-07-05 08:10:00,
2013-07-05 04:20:00,72.1,70.3,30.14,SSE,162,0.0,0.0,94,0.00,,,0.00,0,Wunderground v.1.15,2013-07-05 08:20:00,
2013-07-05 04:30:00,72.3,70.5,30.14,SSE,162,0.0,0.0,94,0.00,,,0.00,0,Wunderground v.1.15,2013-07-05 08:30:00,
2013-07-05 04:40:00,72.3,70.2,30.15,SSE,162,0.0,0.0,93,0.00,,,0.00,0,Wunderground v.1.15,2013-07-05 08:40:00,
2013-07-05 04:50:00,72.0,69.9,30.15,SSE,162,0.0,0.0,93,0.00,,,0.00,0,Wunderground v.1.15,2013-07-05 08:50:00,
2013-07-05 05:00:00,71.5,69.4,30.15,SSE,162,0.0,0.0,93,0.00,,,0.00,0,Wunderground v.1.15,2013-07-05 09:00:00,
2013-07-05 05:10:00,70.9,69.1,30.15,SSE,162,0.0,0.0,94,0.00,,,0.00,0,Wunderground v.1.15,2013-07-05 09:10:00,
2013-07-05 05:20:00,70.6,68.8,30.14,SSE,162,0.0,0.0,94,0.00,,,0.00,0,Wunderground v.1.15,2013-07-05 09:20:00,
2013-07-05 05:30:00,71.0,69.5,30.14,SSE,162,0.0,0.0,95,0.00,,,0.00,0,Wunderground v.1.15,2013-07-05 09:30:00,
2013-07-05 05:40:00,70.1,68.6,30.14,SSE,162,0.0,0.0,95,0.00,,,0.00,0,Wunderground v.1.15,2013-07-05 09:40:00,
2013-07-05 05:50:00,70.0,68.5,30.14,SSE,162,0.0,0.0,95,0.00,,,0.00,0,Wunderground v.1.15,2013-07-05 09:50:00,
2013-07-05 06:00:00,70.1,68.9,30.15,SSE,162,0.0,0.0,96,0.00,,,0.00,7,Wunderground v.1.15,2013-07-05 10:00:00,
2013-07-05 06:10:00,69.7,68.5,30.15,SSE,162,0.0,0.0,96,0.00,,,0.00,14,Wunderground v.1.15,2013-07-05 10:10:00,
2013-07-05 06:20:00,70.9,69.7,30.15,SSE,162,0.0,0.0,96,0.00,,,0.00,25,Wunderground v.1.15,2013-07-05 10:20:00,
2013-07-05 06:30:00,71.3,70.1,30.15,SSE,162,0.0,0.0,96,0.00,,,0.00,42,Wunderground v.1.15,2013-07-05 10:30:00,
2013-07-05 06:40:00,71.6,70.4,30.15,SSE,162,0.0,0.0,96,0.00,,,0.00,62,Wunderground v.1.15,2013-07-05 10:40:00,
2013-07-05 06:50:00,72.2,71.0,30.15,SSE,162,0.0,0.0,96,0.00,,,0.00,86,Wunderground v.1.15,2013-07-05 10:50:00,
2013-07-05 07:00:00,73.5,72.0,30.15,SSE,162,0.0,0.0,95,0.00,,,0.00,113,Wunderground v.1.15,2013-07-05 11:00:00,
2013-07-05 07:10:00,74.4,72.2,30.16,SSE,162,0.0,0.0,93,0.00,,,0.00,139,Wunderground v.1.15,2013-07-05 11:10:00,
2013-07-05 07:20:00,74.6,72.1,30.16,SSE,162,0.0,0.0,92,0.00,,,0.00,171,Wunderground v.1.15,2013-07-05 11:20:00,
2013-07-05 07:30:00,75.5,72.7,30.16,SSE,162,0.0,0.0,91,0.00,,,0.00,204,Wunderground v.1.15,2013-07-05 11:30:00,
2013-07-05 08:00:00,77.3,73.5,30.16,SSE,162,1.0,1.0,88,0.00,,,0.00,301,Wunderground v.1.15,2013-07-05 12:00:00,
2013-07-05 08:10:00,78.0,73.1,30.16,SSE,162,0.0,0.0,85,0.00,,,0.00,336,Wunderground v.1.15,2013-07-05 12:10:00,
2013-07-05 08:20:00,79.3,73.7,30.17,South,169,1.0,1.0,83,0.00,,,0.00,359,Wunderground v.1.15,2013-07-05 12:20:00,
2013-07-05 08:30:00,79.7,73.3,30.17,SSW,195,0.0,0.0,81,0.00,,,0.00,392,Wunderground v.1.15,2013-07-05 12:30:00,
2013-07-05 08:40:00,80.2,74.2,30.18,SSE,156,0.0,0.0,82,0.00,,,0.00,418,Wunderground v.1.15,2013-07-05 12:40:00,
2013-07-05 08:50:00,80.2,73.1,30.17,West,259,1.0,1.0,79,0.00,,,0.00,454,Wunderground v.1.15,2013-07-05 12:50:00,
2013-07-05 09:00:00,81.0,73.1,30.17,SW,231,1.0,1.0,77,0.00,,,0.00,482,Wunderground v.1.15,2013-07-05 13:00:00,
2013-07-05 09:10:00,81.5,73.6,30.17,SSE,167,1.0,3.0,77,0.00,,,0.00,513,Wunderground v.1.15,2013-07-05 13:10:00,
2013-07-05 09:20:00,82.0,73.3,30.17,West,266,2.0,2.0,75,0.00,,,0.00,543,Wunderground v.1.15,2013-07-05 13:20:00,
2013-07-05 09:30:00,82.4,72.5,30.17,West,261,1.0,1.0,72,0.00,,,0.00,571,Wunderground v.1.15,2013-07-05 13:30:00,
2013-07-05 09:40:00,82.6,73.1,30.17,SSE,159,2.0,2.0,73,0.00,,,0.00,601,Wunderground v.1.15,2013-07-05 13:40:00,
2013-07-05 10:00:00,83.2,73.2,30.17,West,261,1.0,2.0,72,0.00,,,0.00,654,Wunderground v.1.15,2013-07-05 14:00:00,
2013-07-05 10:10:00,83.7,73.7,30.16,WSW,246,1.0,1.0,72,0.00,,,0.00,677,Wunderground v.1.15,2013-07-05 14:10:00,
2013-07-05 10:20:00,83.8,73.8,30.17,SSW,204,1.0,3.0,72,0.00,,,0.00,698,Wunderground v.1.15,2013-07-05 14:20:00,
2013-07-05 10:30:00,84.3,73.4,30.16,SSE,161,1.0,1.0,70,0.00,,,0.00,742,Wunderground v.1.15,2013-07-05 14:30:00,
2013-07-05 10:40:00,84.4,74.4,30.16,SE,139,2.0,2.0,72,0.00,,,0.00,812,Wunderground v.1.15,2013-07-05 14:40:00,
2013-07-05 10:50:00,84.9,73.6,30.16,South,175,1.0,1.0,69,0.00,,,0.00,791,Wunderground v.1.15,2013-07-05 14:50:00,
2013-07-05 11:00:00,85.6,73.4,30.16,WSW,245,1.0,4.0,67,0.00,,,0.00,802,Wunderground v.1.15,2013-07-05 15:00:00,
2013-07-05 11:10:00,85.9,73.7,30.16,WSW,240,1.0,1.0,67,0.00,,,0.00,865,Wunderground v.1.15,2013-07-05 15:10:00,
2013-07-05 11:20:00,86.6,74.8,30.16,SSW,201,2.0,2.0,68,0.00,,,0.00,865,Wunderground v.1.15,2013-07-05 15:20:00,
2013-07-05 11:30:00,86.3,74.9,30.16,SSE,167,1.0,1.0,69,0.00,,,0.00,919,Wunderground v.1.15,2013-07-05 15:30:00,
2013-07-05 11:40:00,86.5,75.1,30.16,SSE,159,2.0,5.0,69,0.00,,,0.00,882,Wunderground v.1.15,2013-07-05 15:40:00,
2013-07-05 11:50:00,87.7,74.5,30.16,SSW,202,3.0,5.0,65,0.00,,,0.00,884,Wunderground v.1.15,2013-07-05 15:50:00,
2013-07-05 12:00:00,87.8,74.1,30.16,WSW,254,3.0,3.0,64,0.00,,,0.00,896,Wunderground v.1.15,2013-07-05 16:00:00,
2013-07-05 12:10:00,87.3,73.6,30.16,West,269,3.0,3.0,64,0.00,,,0.00,916,Wunderground v.1.15,2013-07-05 16:10:00,
2013-07-05 12:20:00,88.2,73.5,30.15,SW,218,2.0,2.0,62,0.00,,,0.00,1046,Wunderground v.1.15,2013-07-05 16:20:00,
2013-07-05 12:30:00,88.3,73.6,30.15,WSW,241,2.0,5.0,62,0.00,,,0.00,995,Wunderground v.1.15,2013-07-05 16:30:00,
2013-07-05 12:40:00,89.0,74.8,30.15,SSW,201,2.0,6.0,63,0.00,,,0.00,991,Wunderground v.1.15,2013-07-05 16:40:00,
2013-07-05 12:50:00,88.2,74.9,30.14,SSW,198,3.0,3.0,65,0.00,,,0.00,1049,Wunderground v.1.15,2013-07-05 16:50:00,
2013-07-05 13:00:00,88.9,74.7,30.14,South,178,3.0,5.0,63,0.00,,,0.00,719,Wunderground v.1.15,2013-07-05 17:00:00,
2013-07-05 13:10:00,88.9,74.7,30.14,South,174,2.0,2.0,63,0.00,,,0.00,287,Wunderground v.1.15,2013-07-05 17:10:00,
2013-07-05 13:20:00,87.5,74.3,30.14,South,188,2.0,3.0,65,0.00,,,0.00,267,Wunderground v.1.15,2013-07-05 17:20:00,
2013-07-05 13:30:00,89.4,75.1,30.13,South,169,1.0,5.0,63,0.00,,,0.00,1125,Wunderground v.1.15,2013-07-05 17:30:00,
2013-07-05 13:40:00,88.8,74.1,30.13,WSW,238,2.0,2.0,62,0.00,,,0.00,260,Wunderground v.1.15,2013-07-05 17:40:00,
2013-07-05 13:50:00,89.4,74.7,30.12,SW,217,2.0,2.0,62,0.00,,,0.00,1076,Wunderground v.1.15,2013-07-05 17:50:00,
2013-07-05 14:00:00,89.8,75.0,30.12,West,267,2.0,5.0,62,0.00,,,0.00,642,Wunderground v.1.15,2013-07-05 18:00:00,
2013-07-05 14:10:00,90.3,74.5,30.12,SSE,162,1.0,1.0,60,0.00,,,0.00,969,Wunderground v.1.15,2013-07-05 18:10:00,
2013-07-05 14:20:00,90.0,73.7,30.12,South,171,2.0,2.0,59,0.00,,,0.00,947,Wunderground v.1.15,2013-07-05 18:20:00,
2013-07-05 14:30:00,90.4,73.1,30.11,WSW,238,1.0,1.0,57,0.00,,,0.00,394,Wunderground v.1.15,2013-07-05 18:30:00,
2013-07-05 14:40:00,89.8,72.5,30.12,SSW,211,2.0,2.0,57,0.00,,,0.00,454,Wunderground v.1.15,2013-07-05 18:40:00,
2013-07-05 14:50:00,90.2,72.4,30.11,SSW,204,1.0,2.0,56,0.00,,,0.00,594,Wunderground v.1.15,2013-07-05 18:50:00,
2013-07-05 15:00:00,91.1,74.8,30.11,SSE,154,2.0,5.0,59,0.00,,,0.00,1018,Wunderground v.1.15,2013-07-05 19:00:00,
2013-07-05 15:10:00,89.2,74.0,30.11,South,182,2.0,2.0,61,0.00,,,0.00,213,Wunderground v.1.15,2013-07-05 19:10:00,
2013-07-05 15:20:00,89.0,74.8,30.11,South,175,2.0,2.0,63,0.00,,,0.00,891,Wunderground v.1.15,2013-07-05 19:20:00,
2013-07-05 15:30:00,88.8,75.0,30.10,South,188,2.0,2.0,64,0.00,,,0.00,211,Wunderground v.1.15,2013-07-05 19:30:00,
2013-07-05 15:40:00,89.0,75.7,30.10,SSE,159,4.0,4.0,65,0.00,,,0.00,271,Wunderground v.1.15,2013-07-05 19:40:00,
2013-07-05 15:50:00,88.0,75.2,30.10,South,179,3.0,3.0,66,0.00,,,0.00,559,Wunderground v.1.15,2013-07-05 19:50:00,
2013-07-05 16:00:00,88.7,75.9,30.09,SE,143,2.0,2.0,66,0.00,,,0.00,526,Wunderground v.1.15,2013-07-05 20:00:00,
2013-07-05 16:10:00,88.6,76.2,30.09,SSE,148,2.0,2.0,67,0.00,,,0.00,598,Wunderground v.1.15,2013-07-05 20:10:00,
2013-07-05 16:20:00,88.8,76.0,30.08,South,183,3.0,3.0,66,0.00,,,0.00,798,Wunderground v.1.15,2013-07-05 20:20:00,
2013-07-05 16:30:00,89.9,75.6,30.08,South,186,3.0,3.0,63,0.00,,,0.00,737,Wunderground v.1.15,2013-07-05 20:30:00,
2013-07-05 16:40:00,89.4,75.1,30.08,SSE,165,2.0,2.0,63,0.00,,,0.00,628,Wunderground v.1.15,2013-07-05 20:40:00,
2013-07-05 16:50:00,89.1,74.9,30.08,South,186,1.0,1.0,63,0.00,,,0.00,497,Wunderground v.1.15,2013-07-05 20:50:00,
2013-07-05 17:00:00,88.9,75.1,30.08,South,169,3.0,3.0,64,0.00,,,0.00,545,Wunderground v.1.15,2013-07-05 21:00:00,
2013-07-05 17:10:00,88.8,75.0,30.07,SE,144,1.0,1.0,64,0.00,,,0.00,605,Wunderground v.1.15,2013-07-05 21:10:00,
2013-07-05 17:20:00,88.9,74.7,30.07,SSE,149,2.0,9.0,63,0.00,,,0.00,552,Wunderground v.1.15,2013-07-05 21:20:00,
2013-07-05 17:30:00,88.8,75.0,30.07,South,191,4.0,4.0,64,0.00,,,0.00,489,Wunderground v.1.15,2013-07-05 21:30:00,
2013-07-05 17:40:00,89.3,75.0,30.07,SE,136,2.0,5.0,63,0.00,,,0.00,239,Wunderground v.1.15,2013-07-05 21:40:00,
2013-07-05 17:50:00,89.2,74.0,30.06,SE,135,1.0,2.0,61,0.00,,,0.00,250,Wunderground v.1.15,2013-07-05 21:50:00,
2013-07-05 18:00:00,88.8,73.6,30.07,SW,215,1.0,1.0,61,0.00,,,0.00,60,Wunderground v.1.15,2013-07-05 22:00:00,
2013-07-05 18:10:00,88.2,73.5,30.06,South,186,2.0,3.0,62,0.00,,,0.00,63,Wunderground v.1.15,2013-07-05 22:10:00,
2013-07-05 18:20:00,88.0,73.3,30.06,SSE,159,2.0,2.0,62,0.00,,,0.00,218,Wunderground v.1.15,2013-07-05 22:20:00,
2013-07-05 18:30:00,87.8,73.6,30.06,SW,215,2.0,2.0,63,0.00,,,0.00,292,Wunderground v.1.15,2013-07-05 22:30:00,
2013-07-05 18:40:00,87.3,73.6,30.06,SSE,155,2.0,2.0,64,0.00,,,0.00,229,Wunderground v.1.15,2013-07-05 22:40:00,
2013-07-05 18:50:00,87.1,73.9,30.06,SSE,153,1.0,1.0,65,0.00,,,0.00,251,Wunderground v.1.15,2013-07-05 22:50:00,
2013-07-05 19:00:00,86.7,73.5,30.06,SSW,208,2.0,2.0,65,0.00,,,0.00,54,Wunderground v.1.15,2013-07-05 23:00:00,
2013-07-05 19:10:00,86.4,73.2,30.06,South,170,1.0,4.0,65,0.00,,,0.00,39,Wunderground v.1.15,2013-07-05 23:10:00,
2013-07-05 19:20:00,86.1,73.4,30.06,SSE,158,1.0,1.0,66,0.00,,,0.00,37,Wunderground v.1.15,2013-07-05 23:20:00,
2013-07-05 19:30:00,85.7,73.0,30.06,SSE,167,1.0,1.0,66,0.00,,,0.00,44,Wunderground v.1.15,2013-07-05 23:30:00,
2013-07-05 19:40:00,85.2,73.0,30.06,SSE,163,1.0,1.0,67,0.00,,,0.00,86,Wunderground v.1.15,2013-07-05 23:40:00,
2013-07-05 19:50:00,84.9,73.2,30.07,SSE,165,0.0,0.0,68,0.00,,,0.00,35,Wunderground v.1.15,2013-07-05 23:50:00,
2013-07-05 20:00:00,84.4,73.5,30.07,SSW,193,0.0,1.0,70,0.00,,,0.00,28,Wunderground v.1.15,2013-07-06 00:00:00,
2013-07-05 20:10:00,83.8,73.4,30.08,SSW,208,0.0,0.0,71,0.00,,,0.00,18,Wunderground v.1.15,2013-07-06 00:10:00,
2013-07-05 20:20:00,83.4,73.4,30.08,SSE,159,0.0,0.0,72,0.00,,,0.00,7,Wunderground v.1.15,2013-07-06 00:20:00,
2013-07-05 20:30:00,82.9,73.4,30.08,South,186,0.0,0.0,73,0.00,,,0.00,0,Wunderground v.1.15,2013-07-06 00:30:00,
2013-07-05 20:40:00,82.4,73.3,30.08,South,173,0.0,0.0,74,0.00,,,0.00,0,Wunderground v.1.15,2013-07-06 00:40:00,
2013-07-05 20:50:00,82.0,73.3,30.08,SSE,159,0.0,0.0,75,0.00,,,0.00,0,Wunderground v.1.15,2013-07-06 00:50:00,
2013-07-05 21:00:00,81.6,73.3,30.08,SSE,157,0.0,0.0,76,0.00,,,0.00,0,Wunderground v.1.15,2013-07-06 01:00:00,
2013-07-05 21:10:00,81.4,73.1,30.09,SSE,160,0.0,0.0,76,0.00,,,0.00,0,Wunderground v.1.15,2013-07-06 01:10:00,
2013-07-05 21:20:00,81.2,73.3,30.08,SSW,201,0.0,0.0,77,0.00,,,0.00,0,Wunderground v.1.15,2013-07-06 01:20:00,
2013-07-05 21:30:00,81.1,73.2,30.09,SSE,165,0.0,0.0,77,0.00,,,0.00,0,Wunderground v.1.15,2013-07-06 01:30:00,
2013-07-05 21:40:00,80.9,73.0,30.09,South,173,0.0,0.0,77,0.00,,,0.00,0,Wunderground v.1.15,2013-07-06 01:40:00,
2013-07-05 21:50:00,80.7,73.2,30.10,SSE,161,0.0,0.0,78,0.00,,,0.00,0,Wunderground v.1.15,2013-07-06 01:50:00,
2013-07-05 22:00:00,80.5,73.0,30.10,SSE,165,0.0,0.0,78,0.00,,,0.00,0,Wunderground v.1.15,2013-07-06 02:00:00,
2013-07-05 22:10:00,80.4,72.9,30.10,SSE,168,0.0,0.0,78,0.00,,,0.00,0,Wunderground v.1.15,2013-07-06 02:10:00,
2013-07-05 22:20:00,80.2,72.7,30.10,SSE,168,0.0,0.0,78,0.00,,,0.00,0,Wunderground v.1.15,2013-07-06 02:20:00,
2013-07-05 22:30:00,79.9,72.8,30.11,SSE,168,0.0,0.0,79,0.00,,,0.00,0,Wunderground v.1.15,2013-07-06 02:30:00,
2013-07-05 22:40:00,79.6,72.9,30.11,West,277,0.0,0.0,80,0.00,,,0.00,0,Wunderground v.1.15,2013-07-06 02:40:00,
2013-07-05 22:50:00,79.2,72.9,30.11,West,267,0.0,0.0,81,0.00,,,0.00,0,Wunderground v.1.15,2013-07-06 02:50:00,
2013-07-05 23:00:00,78.9,72.6,30.11,West,267,0.0,0.0,81,0.00,,,0.00,0,Wunderground v.1.15,2013-07-06 03:00:00,
2013-07-05 23:10:00,78.4,72.4,30.11,West,267,0.0,0.0,82,0.00,,,0.00,0,Wunderground v.1.15,2013-07-06 03:10:00,
2013-07-05 23:20:00,77.9,72.3,30.10,West,267,0.0,0.0,83,0.00,,,0.00,0,Wunderground v.1.15,2013-07-06 03:20:00,
2013-07-05 23:30:00,77.5,72.3,30.11,West,267,0.0,0.0,84,0.00,,,0.00,0,Wunderground v.1.15,2013-07-06 03:30:00,
2013-07-05 23:40:00,77.6,72.4,30.11,West,267,0.0,0.0,84,0.00,,,0.00,0,Wunderground v.1.15,2013-07-06 03:40:00,
2013-07-05 23:50:00,77.7,72.1,30.11,West,267,0.0,0.0,83,0.00,,,0.00,0,Wunderground v.1.15,2013-07-06 03:50:00,